createdAt,value
2023-03-21T00:00:43.634Z,2.42
2023-03-21T00:03:10.431Z,2.95
2023-03-21T00:05:42.320Z,2.90
2023-03-21T00:08:09.482Z,2.85
2023-03-21T00:10:41.690Z,3.08
2023-03-21T00:13:14.803Z,3.67
2023-03-21T00:16:05.041Z,2.70
2023-03-21T00:18:41.814Z,3.05
2023-03-21T00:26:25.836Z,3.05
2023-03-21T00:28:52.986Z,3.20
2023-03-21T00:31:19.851Z,3.50
2023-03-21T00:33:46.565Z,3.78
2023-03-21T00:36:13.911Z,2.72
2023-03-21T00:38:40.853Z,3.47
2023-03-21T00:41:20.839Z,2.97
2023-03-21T00:43:47.953Z,3.15
2023-03-21T00:46:14.656Z,2.70
2023-03-21T00:48:41.381Z,3.47
2023-03-21T00:51:34.202Z,2.90
2023-03-21T00:54:01.078Z,3.22
2023-03-21T00:56:27.688Z,3.15
2023-03-21T00:58:54.338Z,3.17
2023-03-21T01:01:21.002Z,3.17
2023-03-21T01:03:51.115Z,4.47
2023-03-21T01:06:19.662Z,4.93
2023-03-21T01:08:52.697Z,5.07
2023-03-21T01:11:23.752Z,4.47
2023-03-21T01:14:10.923Z,5.18
2023-03-21T01:16:38.555Z,4.78
2023-03-21T01:19:14.869Z,4.60
2023-03-21T01:21:45.396Z,4.15
2023-03-21T01:24:12.019Z,4.63
2023-03-21T01:26:38.673Z,4.03
2023-03-21T01:29:05.621Z,3.63
2023-03-21T01:31:32.322Z,3.80
2023-03-21T01:33:58.989Z,2.88
2023-03-21T01:36:26.751Z,2.10
2023-03-21T01:38:54.101Z,2.78
2023-03-21T01:41:41.612Z,2.60
2023-03-21T01:44:15.467Z,2.63
2023-03-21T01:47:00.373Z,2.47
2023-03-21T01:49:35.958Z,3.88
2023-03-21T01:52:15.265Z,3.92
2023-03-21T01:54:46.828Z,2.80
2023-03-21T01:59:54.667Z,2.90
2023-03-21T02:02:27.024Z,3.15
2023-03-21T02:04:58.011Z,2.50
2023-03-21T02:07:29.733Z,3.63
2023-03-21T02:09:57.982Z,2.53
2023-03-21T02:12:27.210Z,2.67
2023-03-21T02:14:55.682Z,3.65
2023-03-21T02:17:34.761Z,3.63
2023-03-21T02:20:27.373Z,3.50
2023-03-21T02:23:21.897Z,2.92
2023-03-21T02:25:54.332Z,3.28
2023-03-21T02:28:49.894Z,3.00
2023-03-21T02:32:16.239Z,2.92
2023-03-21T02:35:35.433Z,3.38
2023-03-21T02:38:25.955Z,3.13
2023-03-21T02:41:19.536Z,3.28
2023-03-21T02:44:17.192Z,3.60
2023-03-21T02:46:59.473Z,3.90
2023-03-21T02:49:46.719Z,3.25
2023-03-21T02:52:31.781Z,3.40
2023-03-21T02:55:04.844Z,3.53
2023-03-21T02:57:42.134Z,3.20
2023-03-21T03:00:16.543Z,4.10
2023-03-21T03:02:43.749Z,4.15
2023-03-21T03:05:29.803Z,4.30
2023-03-21T03:08:26.566Z,4.05
2023-03-21T03:11:20.537Z,4.78
2023-03-21T03:17:28.579Z,4.07
2023-03-21T03:20:23.378Z,4.45
2023-03-21T03:22:58.426Z,3.75
2023-03-21T03:25:51.640Z,3.50
2023-03-21T03:28:23.702Z,3.28
2023-03-21T03:31:07.439Z,3.67
2023-03-21T03:33:40.793Z,3.28
2023-03-21T03:36:18.753Z,3.35
2023-03-21T03:38:52.169Z,2.85
2023-03-21T03:41:25.626Z,3.05
2023-03-21T03:43:56.313Z,2.92
2023-03-21T03:46:48.832Z,2.70
2023-03-21T03:49:21.019Z,3.30
2023-03-21T03:51:55.818Z,2.97
2023-03-21T03:54:28.437Z,3.00
2023-03-21T03:56:56.297Z,2.40
2023-03-21T03:59:24.209Z,2.80
2023-03-21T04:01:51.570Z,2.45
2023-03-21T04:04:18.362Z,2.42
2023-03-21T04:06:51.468Z,3.20
2023-03-21T04:09:22.187Z,3.42
2023-03-21T04:11:53.441Z,2.97
2023-03-21T04:14:20.331Z,2.63
2023-03-21T04:16:47.165Z,3.40
2023-03-21T04:19:15.172Z,3.50
2023-03-21T04:21:42.449Z,4.38
2023-03-21T04:24:09.620Z,4.40
2023-03-21T04:26:36.352Z,4.10
2023-03-21T04:29:03.912Z,4.07
2023-03-21T04:31:31.401Z,3.35
2023-03-21T04:33:59.543Z,2.88
2023-03-21T04:36:30.520Z,3.90
2023-03-21T04:39:01.441Z,3.72
2023-03-21T04:41:29.023Z,4.55
2023-03-21T04:43:56.563Z,3.78
2023-03-21T04:46:24.017Z,4.43
2023-03-21T04:48:50.731Z,4.13
2023-03-21T04:51:17.311Z,3.92
2023-03-21T04:53:45.876Z,3.63
2023-03-21T04:56:12.548Z,4.10
2023-03-21T04:58:40.707Z,3.78
2023-03-21T05:01:08.282Z,3.45
2023-03-21T05:03:40.055Z,4.32
2023-03-21T05:06:10.391Z,3.92
2023-03-21T05:08:37.105Z,4.13
2023-03-21T05:11:04.841Z,4.07
2023-03-21T05:13:31.473Z,4.57
2023-03-21T05:15:58.152Z,4.38
2023-03-21T05:18:25.201Z,4.50
2023-03-21T05:20:55.761Z,4.28
2023-03-21T05:23:23.725Z,4.22
2023-03-21T05:25:50.737Z,4.28
2023-03-21T05:28:23.621Z,4.72
2023-03-21T05:30:50.288Z,4.20
2023-03-21T05:33:16.858Z,4.07
2023-03-21T05:35:43.464Z,4.57
2023-03-21T05:38:10.130Z,4.50
2023-03-21T05:40:36.769Z,4.45
2023-03-21T05:43:03.413Z,4.40
2023-03-21T05:45:30.018Z,4.32
2023-03-21T05:47:56.657Z,4.55
2023-03-21T05:50:23.412Z,5.05
2023-03-21T05:52:50.043Z,4.05
2023-03-21T05:55:16.658Z,4.68
2023-03-21T05:57:43.255Z,3.92
2023-03-21T06:00:10.740Z,4.18
2023-03-21T06:02:37.851Z,4.25
2023-03-21T06:05:04.754Z,3.80
2023-03-21T06:07:31.440Z,3.75
2023-03-21T06:09:58.065Z,4.55
2023-03-21T06:12:24.847Z,4.78
2023-03-21T06:14:51.553Z,4.35
2023-03-21T06:17:18.179Z,4.70
2023-03-21T06:19:44.808Z,4.15
2023-03-21T06:22:11.644Z,5.18
2023-03-21T06:24:38.302Z,4.72
2023-03-21T06:27:05.376Z,5.35
2023-03-21T06:29:32.195Z,4.75
2023-03-21T06:31:58.834Z,4.70
2023-03-21T06:34:26.507Z,3.85
2023-03-21T06:36:54.561Z,5.53
2023-03-21T06:39:21.605Z,4.75
2023-03-21T06:41:48.339Z,4.70
2023-03-21T06:44:15.007Z,4.43
2023-03-21T06:46:41.668Z,4.70
2023-03-21T06:49:08.360Z,5.03
2023-03-21T06:51:35.235Z,4.68
2023-03-21T06:54:01.872Z,5.20
2023-03-21T06:56:28.463Z,4.43
2023-03-21T06:58:55.040Z,5.22
2023-03-21T07:01:22.105Z,5.32
2023-03-21T07:03:48.812Z,4.35
2023-03-21T07:06:16.563Z,5.20
2023-03-21T07:08:43.240Z,4.82
2023-03-21T07:11:09.964Z,4.82
2023-03-21T07:13:36.760Z,4.55
2023-03-21T07:16:03.529Z,5.07
2023-03-21T07:18:30.974Z,6.07
2023-03-21T07:20:58.109Z,5.45
2023-03-21T07:23:26.239Z,5.65
2023-03-21T07:25:53.954Z,5.57
2023-03-21T07:28:21.560Z,5.18
2023-03-21T07:30:54.426Z,6.00
2023-03-21T07:33:21.477Z,6.90
2023-03-21T07:35:48.078Z,6.75
2023-03-21T07:38:16.836Z,6.28
2023-03-21T07:40:44.196Z,4.87
2023-03-21T07:43:10.931Z,5.70
2023-03-21T07:45:37.930Z,5.80
2023-03-21T07:48:04.924Z,4.95
2023-03-21T07:50:31.938Z,4.93
2023-03-21T07:52:58.616Z,5.10
2023-03-21T07:55:25.237Z,5.65
2023-03-21T07:57:52.258Z,5.43
2023-03-21T08:00:23.981Z,5.43
2023-03-21T08:02:57.943Z,5.03
2023-03-21T08:05:28.639Z,5.95
2023-03-21T08:07:55.485Z,4.88
2023-03-21T08:10:22.230Z,4.43
2023-03-21T08:12:50.128Z,5.10
2023-03-21T08:15:17.060Z,5.15
2023-03-21T08:17:45.569Z,4.93
2023-03-21T08:20:18.001Z,4.78
2023-03-21T08:22:44.747Z,5.32
2023-03-21T08:25:16.226Z,4.45
2023-03-21T08:27:44.084Z,5.32
2023-03-21T08:30:12.647Z,4.88
2023-03-21T08:32:40.428Z,5.68
2023-03-21T08:35:10.158Z,4.80
2023-03-21T08:37:38.295Z,5.28
2023-03-21T08:40:11.238Z,5.05
2023-03-21T08:42:38.453Z,4.60
2023-03-21T08:45:06.719Z,5.45
2023-03-21T08:47:33.501Z,6.13
2023-03-21T08:50:00.241Z,5.65
2023-03-21T08:52:27.754Z,5.45
2023-03-21T08:54:54.919Z,5.53
2023-03-21T08:57:21.864Z,5.53
2023-03-21T08:59:48.573Z,4.68
2023-03-21T09:02:16.776Z,6.63
2023-03-21T09:04:44.705Z,5.72
2023-03-21T09:07:14.352Z,5.82
2023-03-21T09:09:41.679Z,5.93
2023-03-21T09:12:08.663Z,6.35
2023-03-21T09:14:35.859Z,6.97
2023-03-21T09:17:02.489Z,7.18
2023-03-21T09:19:30.139Z,7.30
2023-03-21T09:21:57.861Z,7.10
2023-03-21T09:24:24.611Z,7.00
2023-03-21T09:26:51.629Z,6.30
2023-03-21T09:29:23.052Z,6.05
2023-03-21T09:31:49.739Z,6.93
2023-03-21T09:34:16.502Z,6.05
2023-03-21T09:36:48.771Z,5.60
2023-03-21T09:39:16.714Z,6.22
2023-03-21T09:42:12.660Z,5.43
2023-03-21T09:45:31.918Z,5.53
2023-03-21T09:47:58.587Z,5.47
2023-03-21T09:50:43.855Z,5.45
2023-03-21T09:53:32.597Z,5.57
2023-03-21T09:56:02.091Z,5.60
2023-03-21T09:58:59.334Z,6.47
2023-03-21T10:01:41.717Z,6.00
2023-03-21T10:04:12.549Z,5.45
2023-03-21T10:06:42.759Z,6.57
2023-03-21T10:09:21.444Z,5.70
2023-03-21T10:11:53.180Z,4.60
2023-03-21T10:14:26.189Z,5.20
2023-03-21T10:16:58.071Z,4.82
2023-03-21T10:19:25.204Z,5.20
2023-03-21T10:22:00.817Z,5.13
2023-03-21T10:24:29.668Z,5.03
2023-03-21T10:26:56.999Z,5.03
2023-03-21T10:29:30.322Z,4.60
2023-03-21T10:31:57.057Z,4.38
2023-03-21T10:34:32.640Z,4.60
2023-03-21T10:37:02.077Z,4.63
2023-03-21T10:39:43.960Z,5.03
2023-03-21T10:42:22.166Z,6.75
2023-03-21T10:44:51.290Z,5.95
2023-03-21T10:47:33.703Z,5.60
2023-03-21T10:50:12.412Z,6.50
2023-03-21T10:52:47.744Z,6.97
2023-03-21T10:55:25.753Z,5.70
2023-03-21T10:58:02.752Z,7.00
2023-03-21T11:00:35.856Z,6.85
2023-03-21T11:03:03.705Z,6.85
2023-03-21T11:05:39.587Z,6.47
2023-03-21T11:08:15.412Z,7.75
2023-03-21T11:10:58.997Z,8.35
2023-03-21T11:13:33.931Z,7.82
2023-03-21T11:16:11.650Z,8.93
2023-03-21T11:18:43.894Z,9.52
2023-03-21T11:21:12.999Z,9.57
2023-03-21T11:23:47.884Z,9.93
2023-03-21T11:26:26.764Z,8.95
2023-03-21T11:28:54.766Z,9.02
2023-03-21T11:31:24.682Z,10.32
2023-03-21T11:33:55.329Z,11.38
2023-03-21T11:36:21.949Z,11.15
2023-03-21T11:39:13.681Z,9.95
2023-03-21T11:41:42.125Z,10.65
2023-03-21T11:44:29.040Z,10.00
2023-03-21T11:46:55.825Z,11.73
2023-03-21T11:49:24.288Z,10.00
2023-03-21T11:52:25.664Z,12.32
2023-03-21T11:55:15.158Z,10.20
2023-03-21T11:58:14.618Z,9.90
2023-03-21T12:01:06.154Z,9.82
2023-03-21T12:03:58.743Z,10.40
2023-03-21T12:06:34.991Z,8.90
2023-03-21T12:09:31.328Z,9.88
2023-03-21T12:12:36.470Z,9.15
2023-03-21T12:15:24.687Z,9.23
2023-03-21T12:18:22.065Z,8.52
2023-03-21T12:20:54.203Z,7.90
2023-03-21T12:23:49.636Z,9.15
2023-03-21T12:26:27.812Z,8.38
2023-03-21T12:29:20.788Z,7.75
2023-03-21T12:32:04.174Z,9.57
2023-03-21T12:34:52.586Z,8.45
2023-03-21T12:37:45.311Z,8.25
2023-03-21T12:40:15.828Z,7.85
2023-03-21T12:43:13.850Z,7.68
2023-03-21T12:45:47.457Z,6.70
2023-03-21T12:48:22.537Z,8.27
2023-03-21T12:50:53.798Z,7.82
2023-03-21T12:53:27.118Z,7.97
2023-03-21T12:55:58.545Z,7.30
2023-03-21T12:58:28.597Z,8.18
2023-03-21T13:00:58.230Z,8.10
2023-03-21T13:06:09.293Z,8.70
2023-03-21T13:09:10.182Z,9.30
2023-03-21T13:11:37.681Z,8.10
2023-03-21T13:14:08.399Z,8.32
2023-03-21T13:16:40.704Z,8.98
2023-03-21T13:19:28.686Z,9.55
2023-03-21T13:22:06.704Z,8.77
2023-03-21T13:24:40.769Z,8.55
2023-03-21T13:27:27.618Z,8.88
2023-03-21T13:30:06.273Z,10.27
2023-03-21T13:32:39.364Z,8.50
2023-03-21T13:35:45.793Z,10.00
2023-03-21T13:38:20.462Z,9.90
2023-03-21T13:41:00.691Z,10.13
2023-03-21T13:43:45.645Z,10.90
2023-03-21T13:46:15.001Z,10.98
2023-03-21T13:48:49.376Z,11.15
2023-03-21T13:51:28.593Z,10.82
2023-03-21T13:54:07.147Z,13.02
2023-03-21T13:56:46.407Z,12.30
2023-03-21T13:59:18.716Z,11.82
2023-03-21T14:02:16.722Z,13.27
2023-03-21T14:05:00.214Z,13.82
2023-03-21T14:07:42.090Z,13.10
2023-03-21T14:10:19.856Z,12.38
2023-03-21T14:12:47.360Z,12.90
2023-03-21T14:15:19.639Z,12.48
2023-03-21T14:17:51.740Z,13.55
2023-03-21T14:20:47.052Z,14.25
2023-03-21T14:23:16.130Z,13.77
2023-03-21T14:25:47.834Z,14.65
2023-03-21T14:28:22.965Z,14.52
2023-03-21T14:31:00.178Z,14.90
2023-03-21T14:33:41.963Z,14.93
2023-03-21T14:36:17.482Z,14.43
2023-03-21T14:38:53.282Z,14.43
2023-03-21T14:41:24.690Z,15.75
2023-03-21T14:44:17.932Z,15.10
2023-03-21T14:46:45.112Z,17.88
2023-03-21T14:49:20.929Z,16.60
2023-03-21T14:51:47.954Z,17.83
2023-03-21T14:54:17.692Z,18.15
2023-03-21T14:59:22.458Z,19.10
2023-03-21T15:01:51.200Z,20.30
2023-03-21T15:04:18.411Z,20.77
2023-03-21T15:06:54.568Z,17.83
2023-03-21T15:09:23.534Z,18.38
2023-03-21T15:11:52.170Z,16.88
2023-03-21T15:14:31.583Z,15.60
2023-03-21T15:17:00.423Z,16.90
2023-03-21T15:19:33.831Z,14.80
2023-03-21T15:22:07.760Z,14.13
2023-03-21T15:24:42.804Z,12.45
2023-03-21T15:27:17.339Z,14.48
2023-03-21T15:29:45.809Z,14.43
2023-03-21T15:32:22.917Z,14.55
2023-03-21T15:34:52.209Z,13.13
2023-03-21T15:37:26.006Z,14.98
2023-03-21T15:39:54.449Z,13.70
2023-03-21T15:42:38.446Z,13.65
2023-03-21T15:45:21.554Z,13.32
2023-03-21T15:48:06.522Z,13.10
2023-03-21T15:50:35.488Z,12.98
2023-03-21T15:53:11.908Z,12.80
2023-03-21T15:55:50.222Z,13.00
2023-03-21T15:58:25.852Z,12.98
2023-03-21T16:00:58.043Z,12.55
2023-03-21T16:03:35.093Z,12.80
2023-03-21T16:06:22.815Z,12.82
2023-03-21T16:09:03.588Z,11.98
2023-03-21T16:11:48.044Z,12.40
2023-03-21T16:14:14.798Z,13.30
2023-03-21T16:16:41.553Z,13.13
2023-03-21T16:19:08.342Z,12.95
2023-03-21T16:21:38.158Z,13.90
2023-03-21T16:24:06.256Z,14.23
2023-03-21T16:26:36.629Z,13.68
2023-03-21T16:29:04.433Z,12.95
2023-03-21T16:31:33.852Z,14.00
2023-03-21T16:34:01.657Z,12.82
2023-03-21T16:36:36.256Z,14.50
2023-03-21T16:39:16.811Z,13.50
2023-03-21T16:41:43.764Z,13.05
2023-03-21T16:44:11.763Z,15.07
2023-03-21T16:46:38.630Z,13.70
2023-03-21T16:49:05.817Z,13.70
2023-03-21T16:51:35.633Z,14.65
2023-03-21T16:54:02.786Z,23.33
2023-03-21T16:56:39.747Z,20.15
2023-03-21T16:59:07.797Z,23.00
2023-03-21T17:01:38.341Z,20.90
2023-03-21T17:04:05.138Z,19.55
2023-03-21T17:06:31.946Z,19.30
2023-03-21T17:08:58.901Z,15.23
2023-03-21T17:11:27.064Z,15.80
2023-03-21T17:13:54.930Z,15.23
2023-03-21T17:16:26.736Z,15.52
2023-03-21T17:18:53.950Z,16.20
2023-03-21T17:21:26.626Z,15.07
2023-03-21T17:23:53.844Z,16.05
2023-03-21T17:26:26.147Z,14.85
2023-03-21T17:28:55.405Z,15.05
2023-03-21T17:31:24.349Z,15.60
2023-03-21T17:33:51.130Z,15.38
2023-03-21T17:36:31.059Z,14.02
2023-03-21T17:38:57.863Z,13.82
2023-03-21T17:41:25.277Z,15.65
2023-03-21T17:43:52.226Z,16.35
2023-03-21T17:46:22.161Z,16.85
2023-03-21T17:48:49.790Z,16.17
2023-03-21T17:51:17.126Z,15.63
2023-03-21T17:53:45.886Z,15.77
2023-03-21T17:56:15.550Z,16.23
2023-03-21T18:01:09.086Z,16.05
2023-03-21T18:03:35.701Z,17.23
2023-03-21T18:06:03.745Z,16.55
2023-03-21T18:08:30.582Z,16.63
2023-03-21T18:10:57.393Z,16.65
2023-03-21T18:13:24.213Z,17.73
2023-03-21T18:15:50.958Z,15.70
2023-03-21T18:18:17.705Z,18.65
2023-03-21T18:20:52.160Z,16.70
2023-03-21T18:23:19.578Z,18.00
2023-03-21T18:25:46.580Z,17.20
2023-03-21T18:28:14.055Z,16.80
2023-03-21T18:31:05.431Z,17.63
2023-03-21T18:33:28.580Z,18.95
2023-03-21T18:35:59.557Z,19.58
2023-03-21T18:38:27.779Z,20.88
2023-03-21T18:40:55.552Z,19.08
2023-03-21T18:46:09.311Z,17.40
2023-03-21T18:48:36.550Z,18.08
2023-03-21T18:51:04.541Z,17.17
2023-03-21T18:54:21.416Z,21.10
2023-03-21T18:57:35.268Z,19.63
2023-03-21T19:00:00.922Z,21.30
2023-03-21T19:02:27.945Z,22.88
2023-03-21T19:04:55.399Z,24.63
2023-03-21T19:07:22.041Z,27.20
2023-03-21T19:10:16.081Z,23.65
2023-03-21T19:12:35.802Z,21.73
2023-03-21T19:15:03.466Z,22.65
2023-03-21T19:20:17.221Z,23.17
2023-03-21T19:22:44.469Z,21.13
2023-03-21T19:25:12.906Z,19.40
2023-03-21T19:27:40.427Z,19.25
2023-03-21T19:30:15.379Z,18.63
2023-03-21T19:32:42.904Z,19.67
2023-03-21T19:35:10.443Z,19.23
2023-03-21T19:37:37.622Z,17.65
2023-03-21T19:40:06.165Z,16.75
2023-03-21T19:42:33.515Z,17.63
2023-03-21T19:45:00.972Z,17.40
2023-03-21T19:47:27.641Z,19.08
2023-03-21T19:50:40.759Z,18.35
2023-03-21T19:52:42.488Z,16.90
2023-03-21T19:55:10.849Z,17.42
2023-03-21T19:57:37.592Z,16.38
2023-03-21T20:00:04.801Z,17.20
2023-03-21T20:02:36.516Z,17.45
2023-03-21T20:05:05.429Z,16.40
2023-03-21T20:07:32.824Z,16.77
2023-03-21T20:09:59.887Z,16.88
2023-03-21T20:12:27.575Z,16.63
2023-03-21T20:15:07.147Z,16.42
2023-03-21T20:17:41.885Z,16.35
2023-03-21T20:20:10.282Z,17.27
2023-03-21T20:23:05.127Z,19.52
2023-03-21T20:25:24.057Z,16.13
2023-03-21T20:28:09.308Z,16.35
2023-03-21T20:30:38.212Z,18.67
2023-03-21T20:33:05.222Z,17.33
2023-03-21T20:36:19.744Z,19.40
2023-03-21T20:38:20.458Z,19.38
2023-03-21T20:40:48.089Z,18.77
2023-03-21T20:46:06.866Z,33.63
2023-03-21T20:48:34.457Z,29.98
2023-03-21T20:51:45.034Z,20.52
2023-03-21T20:53:49.733Z,20.15
2023-03-21T20:56:16.330Z,21.75
2023-03-21T20:59:02.024Z,20.48
2023-03-21T21:01:29.845Z,18.75
2023-03-21T21:03:57.596Z,21.48
2023-03-21T21:06:24.553Z,19.23
2023-03-21T21:08:51.199Z,19.55
2023-03-21T21:12:03.044Z,19.80
2023-03-21T21:14:06.413Z,21.63
2023-03-21T21:16:33.388Z,20.45
2023-03-21T21:19:00.696Z,18.52
2023-03-21T21:21:27.907Z,17.55
2023-03-21T21:23:54.529Z,17.88
2023-03-21T21:26:21.248Z,17.50
2023-03-21T21:28:48.130Z,17.30
2023-03-21T21:31:16.707Z,21.40
2023-03-21T21:33:44.890Z,18.83
2023-03-21T21:36:12.233Z,18.25
2023-03-21T21:38:42.857Z,16.05
2023-03-21T21:41:17.259Z,20.27
2023-03-21T21:43:43.869Z,16.45
2023-03-21T21:46:11.365Z,17.33
2023-03-21T21:48:40.419Z,17.45
2023-03-21T21:51:07.441Z,16.38
2023-03-21T21:53:36.570Z,18.23
2023-03-21T21:56:06.372Z,18.80
2023-03-21T21:58:33.863Z,17.70
2023-03-21T22:01:02.022Z,17.20
2023-03-21T22:03:36.270Z,16.83
2023-03-21T22:06:04.686Z,17.05
2023-03-21T22:08:31.438Z,15.38
2023-03-21T22:11:00.630Z,16.55
2023-03-21T22:13:27.868Z,17.75
2023-03-21T22:15:54.699Z,17.48
2023-03-21T22:18:22.374Z,18.83
2023-03-21T22:20:49.073Z,21.27
2023-03-21T22:23:16.277Z,21.58
2023-03-21T22:25:48.253Z,18.52
2023-03-21T22:28:14.959Z,18.08
2023-03-21T22:30:41.846Z,19.58
2023-03-21T22:33:10.092Z,19.02
2023-03-21T22:35:37.393Z,17.25
2023-03-21T22:38:04.098Z,19.25
2023-03-21T22:40:30.860Z,17.55
2023-03-21T22:42:57.657Z,18.52
2023-03-21T22:45:24.686Z,18.38
2023-03-21T22:47:51.516Z,18.17
2023-03-21T22:50:18.357Z,21.27
2023-03-21T22:52:45.018Z,19.85
2023-03-21T22:55:12.751Z,19.60
2023-03-21T22:57:39.355Z,22.10
2023-03-21T23:00:13.250Z,24.40
2023-03-21T23:02:40.770Z,22.65
2023-03-21T23:05:09.003Z,23.27
2023-03-21T23:07:36.226Z,23.20
2023-03-21T23:10:05.037Z,25.50
2023-03-21T23:12:32.199Z,21.10
2023-03-21T23:14:58.833Z,24.00
2023-03-21T23:17:26.586Z,24.45
2023-03-21T23:19:53.209Z,26.40
2023-03-21T23:22:19.801Z,27.73
2023-03-21T23:24:47.004Z,26.52
2023-03-21T23:27:14.517Z,25.52
2023-03-21T23:29:41.187Z,27.52
2023-03-21T23:32:08.210Z,33.97
2023-03-21T23:34:35.114Z,33.15
2023-03-21T23:37:02.443Z,35.17
2023-03-21T23:39:29.302Z,30.52
2023-03-21T23:41:58.077Z,32.67
2023-03-21T23:44:24.871Z,32.17
2023-03-21T23:46:51.488Z,33.92
2023-03-21T23:49:18.216Z,34.72
2023-03-21T23:51:44.928Z,33.92
2023-03-21T23:54:11.526Z,34.00
2023-03-21T23:56:38.219Z,35.13
2023-03-21T23:59:05.118Z,35.13
